createdAt,value
2022-12-18T00:09:12.449Z,-4.50
2022-12-18T00:19:15.728Z,-4.50
2022-12-18T00:29:17.637Z,-4.40
2022-12-18T00:39:19.458Z,-4.70
2022-12-18T00:49:21.521Z,-4.50
2022-12-18T00:59:23.427Z,-4.60
2022-12-18T01:09:26.156Z,-4.60
2022-12-18T01:19:28.793Z,-4.30
2022-12-18T01:29:30.863Z,-4.60
2022-12-18T01:39:33.740Z,-4.30
2022-12-18T01:49:35.636Z,-4.50
2022-12-18T01:59:39.933Z,-4.30
2022-12-18T02:10:08.572Z,-4.30
2022-12-18T02:21:00.180Z,-4.20
2022-12-18T02:31:06.015Z,-4.20
2022-12-18T02:41:08.553Z,-4.40
2022-12-18T02:51:30.091Z,-4.40
2022-12-18T03:01:36.445Z,-4.30
2022-12-18T03:11:43.526Z,-4.20
2022-12-18T03:21:52.786Z,-4.40
2022-12-18T03:31:59.131Z,-4.20
2022-12-18T03:42:08.088Z,-4.20
2022-12-18T03:52:41.873Z,-4.20
2022-12-18T04:02:48.607Z,-4.40
2022-12-18T04:12:59.224Z,-4.30
2022-12-18T04:23:01.516Z,-4.30
2022-12-18T04:33:03.711Z,-4.40
2022-12-18T04:43:07.431Z,-4.30
2022-12-18T04:53:09.448Z,-4.20
2022-12-18T05:03:11.899Z,-4.30
2022-12-18T05:13:13.726Z,-4.30
2022-12-18T05:23:15.597Z,-4.30
2022-12-18T05:33:18.369Z,-4.20
2022-12-18T05:43:21.783Z,-4.40
2022-12-18T05:53:23.789Z,-4.30
2022-12-18T06:03:30.679Z,-4.40
2022-12-18T06:13:38.019Z,-4.20
2022-12-18T06:23:40.817Z,-4.30
2022-12-18T06:33:43.127Z,-4.50
2022-12-18T06:43:45.136Z,-4.40
2022-12-18T06:53:47.237Z,-4.40
2022-12-18T07:03:54.355Z,-4.40
2022-12-18T07:13:56.302Z,-4.10
2022-12-18T07:23:58.305Z,-4.30
2022-12-18T07:34:00.182Z,-4.20
2022-12-18T07:44:04.992Z,-4.30
2022-12-18T07:54:06.973Z,-4.30
2022-12-18T08:04:09.083Z,-4.00
2022-12-18T08:14:11.057Z,-4.00
2022-12-18T08:24:12.900Z,-4.00
2022-12-18T08:34:14.866Z,-3.90
2022-12-18T08:44:16.684Z,-3.80
2022-12-18T08:54:18.606Z,-4.00
2022-12-18T09:04:20.531Z,-3.80
2022-12-18T09:14:22.550Z,-4.00
2022-12-18T09:24:24.467Z,-3.60
2022-12-18T09:34:26.411Z,-3.70
2022-12-18T09:44:43.089Z,-3.80
2022-12-18T09:54:52.928Z,-3.70
2022-12-18T10:05:23.122Z,-3.60
2022-12-18T10:15:50.172Z,-3.50
2022-12-18T10:25:55.816Z,-3.50
2022-12-18T10:35:57.700Z,-3.30
2022-12-18T10:46:13.447Z,-3.10
2022-12-18T10:56:21.296Z,-3.10
2022-12-18T11:06:25.243Z,-3.10
2022-12-18T11:16:28.617Z,-3.20
2022-12-18T11:26:36.206Z,-3.00
2022-12-18T11:36:42.192Z,-3.10
2022-12-18T11:46:53.978Z,-2.90
2022-12-18T11:57:25.661Z,-3.10
2022-12-18T12:07:54.609Z,-3.20
2022-12-18T12:18:15.194Z,-3.30
2022-12-18T12:28:29.314Z,-3.30
2022-12-18T12:38:52.103Z,-3.30
2022-12-18T12:48:57.645Z,-3.30
2022-12-18T12:59:35.521Z,-3.40
2022-12-18T13:10:17.740Z,-3.50
2022-12-18T13:20:21.156Z,-3.50
2022-12-18T13:30:53.430Z,-3.50
2022-12-18T13:41:05.293Z,-3.60
2022-12-18T13:51:10.779Z,-3.70
2022-12-18T14:01:25.376Z,-3.90
2022-12-18T14:11:27.776Z,-4.00
2022-12-18T14:21:31.854Z,-4.30
2022-12-18T14:31:33.727Z,-4.50
2022-12-18T14:41:35.545Z,-4.50
2022-12-18T14:51:37.666Z,-4.60
2022-12-18T15:01:47.949Z,-4.60
2022-12-18T15:11:50.085Z,-5.00
2022-12-18T15:21:51.951Z,-3.60
2022-12-18T15:32:05.797Z,-5.20
2022-12-18T15:42:10.819Z,-5.80
2022-12-18T15:52:14.636Z,-6.40
2022-12-18T16:02:18.752Z,-6.90
2022-12-18T16:12:23.384Z,-7.20
2022-12-18T16:22:28.398Z,-7.30
2022-12-18T16:32:30.313Z,-7.70
2022-12-18T16:42:33.180Z,-8.00
2022-12-18T16:52:35.738Z,-8.00
2022-12-18T17:02:37.732Z,-8.20
2022-12-18T17:12:39.765Z,-8.30
2022-12-18T17:22:41.628Z,-8.40
2022-12-18T17:32:43.560Z,-8.50
2022-12-18T17:42:45.407Z,-7.90
2022-12-18T17:52:47.225Z,-7.10
2022-12-18T18:02:49.372Z,-7.80
2022-12-18T18:12:51.418Z,-7.80
2022-12-18T18:22:53.315Z,-7.50
2022-12-18T18:32:55.165Z,-7.70
2022-12-18T18:42:57.235Z,-7.60
2022-12-18T18:52:59.013Z,-7.50
2022-12-18T19:03:01.195Z,-7.80
2022-12-18T19:13:03.679Z,-8.20
2022-12-18T19:23:05.686Z,-8.30
2022-12-18T19:33:26.785Z,-8.10
2022-12-18T19:43:29.491Z,-8.00
2022-12-18T19:53:31.353Z,-8.10
2022-12-18T20:03:33.590Z,-8.10
2022-12-18T20:13:35.830Z,-8.00
2022-12-18T20:23:37.875Z,-8.20
2022-12-18T20:33:40.383Z,-8.00
2022-12-18T20:43:43.223Z,-8.20
2022-12-18T20:53:45.933Z,-8.20
2022-12-18T21:03:48.841Z,-8.40
2022-12-18T21:13:50.710Z,-8.30
2022-12-18T21:23:52.970Z,-8.40
2022-12-18T21:34:01.869Z,-8.50
2022-12-18T21:44:04.680Z,-8.60
2022-12-18T21:54:07.138Z,-8.70
2022-12-18T22:04:09.278Z,-8.50
2022-12-18T22:14:11.527Z,-8.60
2022-12-18T22:24:20.853Z,-8.70
2022-12-18T22:34:23.341Z,-8.90
2022-12-18T22:44:28.493Z,-8.90
2022-12-18T22:54:30.571Z,-9.10
2022-12-18T23:04:35.921Z,-9.20
2022-12-18T23:14:38.239Z,-9.40
2022-12-18T23:24:40.042Z,-9.30
2022-12-18T23:34:42.560Z,-9.50
2022-12-18T23:44:44.440Z,-9.50
2022-12-18T23:54:46.478Z,-9.50
